createdAt,value
2018-10-09T00:01:02.165Z,13.63
2018-10-09T00:03:30.893Z,13.80
2018-10-09T00:05:59.631Z,13.67
2018-10-09T00:08:28.285Z,13.60
2018-10-09T00:10:56.997Z,14.10
2018-10-09T00:13:25.980Z,13.23
2018-10-09T00:15:54.635Z,12.77
2018-10-09T00:18:23.307Z,13.40
2018-10-09T00:20:51.970Z,14.20
2018-10-09T00:23:20.655Z,13.50
2018-10-09T00:25:49.366Z,14.80
2018-10-09T00:28:18.100Z,14.93
2018-10-09T00:30:46.816Z,13.60
2018-10-09T00:33:15.537Z,14.83
2018-10-09T00:35:44.263Z,13.60
2018-10-09T00:38:13.000Z,14.30
2018-10-09T00:40:41.703Z,14.77
2018-10-09T00:43:10.513Z,13.87
2018-10-09T00:45:39.249Z,13.77
2018-10-09T00:48:07.988Z,14.20
2018-10-09T00:50:36.720Z,14.37
2018-10-09T00:53:05.566Z,14.73
2018-10-09T00:55:34.366Z,14.53
2018-10-09T00:58:03.024Z,14.03
2018-10-09T01:00:31.812Z,15.03
2018-10-09T01:03:00.484Z,16.17
2018-10-09T01:05:29.169Z,16.30
2018-10-09T01:07:57.935Z,15.90
2018-10-09T01:10:26.617Z,16.10
2018-10-09T01:12:55.374Z,17.47
2018-10-09T01:15:24.045Z,17.40
2018-10-09T01:17:52.741Z,17.87
2018-10-09T01:20:31.320Z,18.10
2018-10-09T01:23:00.827Z,16.90
2018-10-09T01:25:29.521Z,17.10
2018-10-09T01:27:58.249Z,17.33
2018-10-09T01:30:26.965Z,18.90
2018-10-09T01:32:55.918Z,17.80
2018-10-09T01:35:24.602Z,17.63
2018-10-09T01:37:53.300Z,18.87
2018-10-09T01:40:21.999Z,18.23
2018-10-09T01:42:50.791Z,17.67
2018-10-09T01:45:19.591Z,16.83
2018-10-09T01:47:48.369Z,18.40
2018-10-09T01:50:17.103Z,18.17
2018-10-09T01:52:45.931Z,16.80
2018-10-09T01:55:14.602Z,17.73
2018-10-09T01:57:43.322Z,18.00
2018-10-09T02:00:12.417Z,19.27
2018-10-09T02:02:41.246Z,20.30
2018-10-09T02:05:10.028Z,17.80
2018-10-09T02:07:38.710Z,18.60
2018-10-09T02:10:07.644Z,18.37
2018-10-09T02:12:36.276Z,19.70
2018-10-09T02:15:05.389Z,20.00
2018-10-09T02:17:34.156Z,17.83
2018-10-09T02:20:02.828Z,19.40
2018-10-09T02:22:31.556Z,18.97
2018-10-09T02:25:00.241Z,17.17
2018-10-09T02:27:29.000Z,17.13
2018-10-09T02:29:57.652Z,17.43
2018-10-09T02:32:26.351Z,17.73
2018-10-09T02:34:55.051Z,17.97
2018-10-09T02:37:23.823Z,17.97
2018-10-09T02:39:52.505Z,17.70
2018-10-09T02:42:21.145Z,18.13
2018-10-09T02:44:49.856Z,17.80
2018-10-09T02:47:18.600Z,17.47
2018-10-09T02:49:47.271Z,17.67
2018-10-09T02:52:15.943Z,17.80
2018-10-09T02:54:44.641Z,18.20
2018-10-09T02:57:13.360Z,17.47
2018-10-09T02:59:42.043Z,17.30
2018-10-09T03:02:10.678Z,18.07
2018-10-09T03:04:39.291Z,18.13
2018-10-09T03:07:08.020Z,18.60
2018-10-09T03:09:36.655Z,18.57
2018-10-09T03:12:05.370Z,18.33
2018-10-09T03:14:34.070Z,17.20
2018-10-09T03:17:02.746Z,20.17
2018-10-09T03:19:31.406Z,18.53
2018-10-09T03:22:00.070Z,18.57
2018-10-09T03:24:28.714Z,19.10
2018-10-09T03:26:57.396Z,19.60
2018-10-09T03:29:26.107Z,18.27
2018-10-09T03:31:54.781Z,19.47
2018-10-09T03:34:23.557Z,19.73
2018-10-09T03:36:52.269Z,19.97
2018-10-09T03:39:20.960Z,19.57
2018-10-09T03:41:49.652Z,19.33
2018-10-09T03:44:18.384Z,20.80
2018-10-09T03:46:47.067Z,20.50
2018-10-09T03:49:15.737Z,19.13
2018-10-09T03:51:44.481Z,17.20
2018-10-09T03:54:13.176Z,18.37
2018-10-09T03:56:41.898Z,18.00
2018-10-09T03:59:10.573Z,18.43
2018-10-09T04:01:39.275Z,16.33
2018-10-09T04:04:08.117Z,13.53
2018-10-09T04:06:36.885Z,15.13
2018-10-09T04:09:08.984Z,14.23
2018-10-09T04:11:38.083Z,14.63
2018-10-09T04:14:07.038Z,14.30
2018-10-09T04:16:36.356Z,14.13
2018-10-09T04:19:05.088Z,14.90
2018-10-09T04:21:33.767Z,14.40
2018-10-09T04:24:02.436Z,15.60
2018-10-09T04:26:31.075Z,15.73
2018-10-09T04:28:59.751Z,16.20
2018-10-09T04:31:28.439Z,16.43
2018-10-09T04:33:57.090Z,15.93
2018-10-09T04:36:25.776Z,17.10
2018-10-09T04:38:54.808Z,15.77
2018-10-09T04:41:23.475Z,16.13
2018-10-09T04:43:52.232Z,17.13
2018-10-09T04:46:21.301Z,17.57
2018-10-09T04:48:50.007Z,16.43
2018-10-09T04:51:18.681Z,17.10
2018-10-09T04:53:47.443Z,17.10
2018-10-09T04:56:16.476Z,16.27
2018-10-09T04:58:45.141Z,15.33
2018-10-09T05:01:13.834Z,16.27
2018-10-09T05:03:42.535Z,15.47
2018-10-09T05:06:11.532Z,15.70
2018-10-09T05:08:40.324Z,15.57
2018-10-09T05:11:09.112Z,14.53
2018-10-09T05:13:37.982Z,14.70
2018-10-09T05:16:06.660Z,15.10
2018-10-09T05:18:35.332Z,13.00
2018-10-09T05:21:04.064Z,15.03
2018-10-09T05:23:32.732Z,14.53
2018-10-09T05:26:01.465Z,13.97
2018-10-09T05:28:30.113Z,13.63
2018-10-09T05:30:58.948Z,13.53
2018-10-09T05:33:27.766Z,13.27
2018-10-09T05:35:56.430Z,13.83
2018-10-09T05:38:25.108Z,14.70
2018-10-09T05:40:53.812Z,14.17
2018-10-09T05:43:22.470Z,13.87
2018-10-09T05:45:51.149Z,15.20
2018-10-09T05:48:19.848Z,15.53
2018-10-09T05:50:48.555Z,17.03
2018-10-09T05:53:17.220Z,19.27
2018-10-09T05:55:45.892Z,15.77
2018-10-09T05:58:14.550Z,14.33
2018-10-09T06:00:43.308Z,14.77
2018-10-09T06:03:12.054Z,13.03
2018-10-09T06:05:40.747Z,15.57
2018-10-09T06:08:09.464Z,14.77
2018-10-09T06:10:38.152Z,14.40
2018-10-09T06:13:06.993Z,16.67
2018-10-09T06:15:35.886Z,18.43
2018-10-09T06:18:04.609Z,18.23
2018-10-09T06:20:33.288Z,19.43
2018-10-09T06:23:01.931Z,18.87
2018-10-09T06:25:30.575Z,21.07
2018-10-09T06:27:59.314Z,20.87
2018-10-09T06:30:28.037Z,20.67
2018-10-09T06:32:56.720Z,21.00
2018-10-09T06:35:25.435Z,21.30
2018-10-09T06:37:54.165Z,21.17
2018-10-09T06:40:22.878Z,22.53
2018-10-09T06:42:53.188Z,24.30
2018-10-09T06:45:21.905Z,24.20
2018-10-09T06:47:50.626Z,23.47
2018-10-09T06:50:19.365Z,22.90
2018-10-09T06:52:48.088Z,22.77
2018-10-09T06:55:16.872Z,23.37
2018-10-09T06:57:45.631Z,22.20
2018-10-09T07:00:23.197Z,21.67
2018-10-09T07:02:51.789Z,21.50
2018-10-09T07:05:20.484Z,20.93
2018-10-09T07:07:49.166Z,21.30
2018-10-09T07:10:17.958Z,21.27
2018-10-09T07:12:46.732Z,21.43
2018-10-09T07:15:15.458Z,20.47
2018-10-09T07:17:44.116Z,19.20
2018-10-09T07:20:12.793Z,18.17
2018-10-09T07:22:41.496Z,19.32
2018-10-09T07:25:10.225Z,17.55
2018-10-09T07:27:44.431Z,18.57
2018-10-09T07:30:13.211Z,16.62
2018-10-09T07:32:41.870Z,16.65
2018-10-09T07:35:11.767Z,16.17
2018-10-09T07:37:40.530Z,16.20
2018-10-09T07:40:09.243Z,14.38
2018-10-09T07:42:37.904Z,14.83
2018-10-09T07:45:06.620Z,14.80
2018-10-09T07:47:35.283Z,12.63
2018-10-09T07:50:04.003Z,12.85
2018-10-09T07:52:34.548Z,13.08
2018-10-09T07:55:03.775Z,11.40
2018-10-09T07:57:32.574Z,9.73
2018-10-09T08:00:04.817Z,8.55
2018-10-09T08:02:33.756Z,7.95
2018-10-09T08:05:02.416Z,8.63
2018-10-09T08:07:31.143Z,10.30
2018-10-09T08:10:01.531Z,10.38
2018-10-09T08:12:30.796Z,10.70
2018-10-09T08:14:59.518Z,9.38
2018-10-09T08:17:29.288Z,9.33
2018-10-09T08:19:58.183Z,10.72
2018-10-09T08:22:26.926Z,9.98
2018-10-09T08:24:56.361Z,9.50
2018-10-09T08:27:25.009Z,7.50
2018-10-09T08:29:53.651Z,7.97
2018-10-09T08:32:22.399Z,7.15
2018-10-09T08:34:52.590Z,6.75
2018-10-09T08:37:22.336Z,5.47
2018-10-09T08:39:51.018Z,8.20
2018-10-09T08:42:19.803Z,6.30
2018-10-09T08:44:48.505Z,5.78
2018-10-09T08:47:17.144Z,5.62
2018-10-09T08:49:45.800Z,6.05
2018-10-09T08:52:14.449Z,6.35
2018-10-09T08:54:43.092Z,6.08
2018-10-09T08:57:11.837Z,5.62
2018-10-09T08:59:40.536Z,6.17
2018-10-09T09:02:09.206Z,5.83
2018-10-09T09:04:37.938Z,5.20
2018-10-09T09:07:06.652Z,6.85
2018-10-09T09:09:35.575Z,5.45
2018-10-09T09:12:04.302Z,8.95
2018-10-09T09:14:36.133Z,6.92
2018-10-09T09:17:05.585Z,5.70
2018-10-09T09:19:34.393Z,6.20
2018-10-09T09:22:06.666Z,6.67
2018-10-09T09:24:35.437Z,6.53
2018-10-09T09:27:05.180Z,6.42
2018-10-09T09:29:34.904Z,6.22
2018-10-09T09:32:04.500Z,6.35
2018-10-09T09:34:33.141Z,6.53
2018-10-09T09:37:01.955Z,6.35
2018-10-09T09:39:30.694Z,6.17
2018-10-09T09:41:59.373Z,5.35
2018-10-09T09:44:28.113Z,5.35
2018-10-09T09:46:56.840Z,5.00
2018-10-09T09:49:25.535Z,4.87
2018-10-09T09:51:56.544Z,7.70
2018-10-09T09:54:25.259Z,8.00
2018-10-09T09:56:54.936Z,5.67
2018-10-09T09:59:27.402Z,4.10
2018-10-09T10:01:56.113Z,4.50
2018-10-09T10:04:24.800Z,3.70
2018-10-09T10:06:53.500Z,3.77
2018-10-09T10:09:22.258Z,4.72
2018-10-09T10:11:50.890Z,5.53
2018-10-09T10:14:20.589Z,3.52
2018-10-09T10:16:49.286Z,4.22
2018-10-09T10:19:17.962Z,5.75
2018-10-09T10:21:46.754Z,3.87
2018-10-09T10:24:15.544Z,5.65
2018-10-09T10:26:44.238Z,4.08
2018-10-09T10:29:12.971Z,4.35
2018-10-09T10:31:41.648Z,4.03
2018-10-09T10:34:10.383Z,3.70
2018-10-09T10:36:39.095Z,5.33
2018-10-09T10:39:10.083Z,4.37
2018-10-09T10:41:38.801Z,4.42
2018-10-09T10:44:07.498Z,5.83
2018-10-09T10:46:40.188Z,3.77
2018-10-09T10:49:11.258Z,4.53
2018-10-09T10:51:39.980Z,4.10
2018-10-09T10:54:08.676Z,3.85
2018-10-09T10:56:37.440Z,4.05
2018-10-09T10:59:06.135Z,4.53
2018-10-09T11:01:35.545Z,3.67
2018-10-09T11:04:04.279Z,3.98
2018-10-09T11:06:33.038Z,3.70
2018-10-09T11:09:01.711Z,3.62
2018-10-09T11:11:30.419Z,3.90
2018-10-09T11:13:59.165Z,4.40
2018-10-09T11:16:27.807Z,3.60
2018-10-09T11:18:56.453Z,3.67
2018-10-09T11:21:25.256Z,4.25
2018-10-09T11:23:53.882Z,4.45
2018-10-09T11:26:22.630Z,5.50
2018-10-09T11:28:51.240Z,3.80
2018-10-09T11:31:20.002Z,4.20
2018-10-09T11:33:48.722Z,4.92
2018-10-09T11:36:17.426Z,5.65
2018-10-09T11:38:46.091Z,3.75
2018-10-09T11:41:14.728Z,3.87
2018-10-09T11:43:43.445Z,3.80
2018-10-09T11:46:12.132Z,3.12
2018-10-09T11:48:40.779Z,3.40
2018-10-09T11:51:09.452Z,4.75
2018-10-09T11:53:38.132Z,3.85
2018-10-09T11:56:06.813Z,4.08
2018-10-09T11:58:35.560Z,3.50
2018-10-09T12:01:06.710Z,3.35
2018-10-09T12:03:35.428Z,4.95
2018-10-09T12:06:04.209Z,3.70
2018-10-09T12:08:32.953Z,5.08
2018-10-09T12:11:01.958Z,4.35
2018-10-09T12:13:30.721Z,3.20
2018-10-09T12:15:59.459Z,3.25
2018-10-09T12:18:28.148Z,4.17
2018-10-09T12:20:56.817Z,3.22
2018-10-09T12:23:25.611Z,2.80
2018-10-09T12:25:54.275Z,4.45
2018-10-09T12:28:23.054Z,3.30
2018-10-09T12:30:51.746Z,4.47
2018-10-09T12:33:20.536Z,5.50
2018-10-09T12:35:49.217Z,6.30
2018-10-09T12:38:18.696Z,4.75
2018-10-09T12:40:47.381Z,4.35
2018-10-09T12:43:16.043Z,4.12
2018-10-09T12:45:44.765Z,5.60
2018-10-09T12:48:13.564Z,4.75
2018-10-09T12:50:42.228Z,3.22
2018-10-09T12:53:10.952Z,3.05
2018-10-09T12:55:39.629Z,3.60
2018-10-09T12:58:08.345Z,3.20
2018-10-09T13:00:37.042Z,2.80
2018-10-09T13:03:06.035Z,3.40
2018-10-09T13:05:34.691Z,3.75
2018-10-09T13:08:03.403Z,3.17
2018-10-09T13:10:32.070Z,4.42
2018-10-09T13:13:00.771Z,3.55
2018-10-09T13:15:29.482Z,5.07
2018-10-09T13:17:58.236Z,3.73
2018-10-09T13:20:26.951Z,3.70
2018-10-09T13:22:55.720Z,3.13
2018-10-09T13:25:24.406Z,2.83
2018-10-09T13:27:52.080Z,3.00
2018-10-09T13:30:20.848Z,3.20
2018-10-09T13:32:49.605Z,3.93
2018-10-09T13:35:18.410Z,2.90
2018-10-09T13:37:47.060Z,4.90
2018-10-09T13:40:15.784Z,3.40
2018-10-09T13:42:44.464Z,3.30
2018-10-09T13:45:13.148Z,3.17
2018-10-09T13:47:41.891Z,3.00
2018-10-09T13:50:10.627Z,3.40
2018-10-09T13:52:39.399Z,4.47
2018-10-09T13:55:08.127Z,3.53
2018-10-09T13:57:37.066Z,3.77
2018-10-09T14:00:07.158Z,3.10
2018-10-09T14:02:35.843Z,3.37
2018-10-09T14:05:04.682Z,3.13
2018-10-09T14:07:33.339Z,4.40
2018-10-09T14:10:02.072Z,4.20
2018-10-09T14:12:30.849Z,7.70
2018-10-09T14:14:59.562Z,4.80
2018-10-09T14:17:28.285Z,4.63
2018-10-09T14:19:56.972Z,3.30
2018-10-09T14:22:25.770Z,3.80
2018-10-09T14:24:54.399Z,3.50
2018-10-09T14:27:23.057Z,4.43
2018-10-09T14:29:51.744Z,4.50
2018-10-09T14:32:20.404Z,3.60
2018-10-09T14:34:49.208Z,4.97
2018-10-09T14:37:17.860Z,4.50
2018-10-09T14:39:46.569Z,3.30
2018-10-09T14:42:15.331Z,3.33
2018-10-09T14:44:44.117Z,3.40
2018-10-09T14:47:12.832Z,3.77
2018-10-09T14:49:42.348Z,3.00
2018-10-09T14:52:11.049Z,3.17
2018-10-09T14:54:39.748Z,3.83
2018-10-09T14:57:08.448Z,3.70
2018-10-09T14:59:37.126Z,3.60
2018-10-09T15:02:05.826Z,3.30
2018-10-09T15:04:34.573Z,2.87
2018-10-09T15:07:03.271Z,3.43
2018-10-09T15:09:31.975Z,3.70
2018-10-09T15:12:00.617Z,4.60
2018-10-09T15:14:29.888Z,4.23
2018-10-09T15:16:58.741Z,5.30
2018-10-09T15:19:27.323Z,4.50
2018-10-09T15:21:56.008Z,3.73
2018-10-09T15:24:24.701Z,3.27
2018-10-09T15:26:53.411Z,4.40
2018-10-09T15:29:22.089Z,3.70
2018-10-09T15:31:50.760Z,10.30
2018-10-09T15:34:19.581Z,4.20
2018-10-09T15:36:48.294Z,4.20
2018-10-09T15:39:16.962Z,5.00
2018-10-09T15:41:45.710Z,5.27
2018-10-09T15:44:14.427Z,3.70
2018-10-09T15:46:43.105Z,3.70
2018-10-09T15:49:11.793Z,3.70
2018-10-09T15:51:40.497Z,4.50
2018-10-09T15:54:09.220Z,3.63
2018-10-09T15:56:37.975Z,4.10
2018-10-09T15:59:06.796Z,4.10
2018-10-09T16:01:35.473Z,4.57
2018-10-09T16:04:04.217Z,7.07
2018-10-09T16:06:32.996Z,5.20
2018-10-09T16:09:01.701Z,5.13
2018-10-09T16:11:30.707Z,4.60
2018-10-09T16:13:59.593Z,4.17
2018-10-09T16:16:28.293Z,5.20
2018-10-09T16:18:56.940Z,4.43
2018-10-09T16:21:25.629Z,4.60
2018-10-09T16:23:54.300Z,6.00
2018-10-09T16:26:22.989Z,4.90
2018-10-09T16:28:51.702Z,5.17
2018-10-09T16:31:20.410Z,5.20
2018-10-09T16:33:49.605Z,4.50
2018-10-09T16:36:18.284Z,4.23
2018-10-09T16:38:47.036Z,4.40
2018-10-09T16:41:15.759Z,4.23
2018-10-09T16:43:44.958Z,4.07
2018-10-09T16:46:14.040Z,6.20
2018-10-09T16:48:43.424Z,6.20
2018-10-09T16:51:12.225Z,5.70
2018-10-09T16:53:41.494Z,7.00
2018-10-09T16:56:10.496Z,6.90
2018-10-09T16:58:39.219Z,7.07
2018-10-09T17:01:07.953Z,6.80
2018-10-09T17:03:36.621Z,8.40
2018-10-09T17:06:05.346Z,13.50
2018-10-09T17:08:34.037Z,5.90
2018-10-09T17:11:02.673Z,6.03
2018-10-09T17:13:31.376Z,4.57
2018-10-09T17:16:00.086Z,5.77
2018-10-09T17:18:30.277Z,6.30
2018-10-09T17:20:59.817Z,6.20
2018-10-09T17:23:28.689Z,6.90
2018-10-09T17:25:57.755Z,6.53
2018-10-09T17:28:26.522Z,7.20
2018-10-09T17:30:55.217Z,5.90
2018-10-09T17:33:23.950Z,6.63
2018-10-09T17:35:52.639Z,8.43
2018-10-09T17:38:21.315Z,8.13
2018-10-09T17:40:50.041Z,6.20
2018-10-09T17:43:18.770Z,8.33
2018-10-09T17:45:47.412Z,9.60
2018-10-09T17:48:16.210Z,7.17
2018-10-09T17:50:44.952Z,8.10
2018-10-09T17:53:13.716Z,11.50
2018-10-09T17:55:42.398Z,8.97
2018-10-09T17:58:11.308Z,9.50
2018-10-09T18:00:40.168Z,10.20
2018-10-09T18:03:08.875Z,10.33
2018-10-09T18:05:37.566Z,9.53
2018-10-09T18:08:06.787Z,9.87
2018-10-09T18:10:35.813Z,11.10
2018-10-09T18:13:04.674Z,11.33
2018-10-09T18:15:33.417Z,11.63
2018-10-09T18:18:02.153Z,10.40
2018-10-09T18:20:31.220Z,9.50
2018-10-09T18:22:59.911Z,15.07
2018-10-09T18:25:28.640Z,14.87
2018-10-09T18:27:57.370Z,12.67
2018-10-09T18:30:26.084Z,11.73
2018-10-09T18:32:54.936Z,11.40
2018-10-09T18:35:23.497Z,11.47
2018-10-09T18:37:52.185Z,10.70
2018-10-09T18:40:20.910Z,12.03
2018-10-09T18:42:49.654Z,12.73
2018-10-09T18:45:18.511Z,11.63
2018-10-09T18:47:47.191Z,11.63
2018-10-09T18:50:15.918Z,12.10
2018-10-09T18:52:44.580Z,13.60
2018-10-09T18:55:14.816Z,10.97
2018-10-09T18:57:43.705Z,19.43
2018-10-09T19:00:13.439Z,20.27
2018-10-09T19:02:42.192Z,17.13
2018-10-09T19:05:11.378Z,18.43
2018-10-09T19:07:40.410Z,14.37
2018-10-09T19:10:09.741Z,14.67
2018-10-09T19:12:38.464Z,14.33
2018-10-09T19:15:07.642Z,17.20
2018-10-09T19:17:36.417Z,18.10
2018-10-09T19:20:05.509Z,16.50
2018-10-09T19:22:34.262Z,15.30
2018-10-09T19:25:03.028Z,16.53
2018-10-09T19:27:31.747Z,15.70
2018-10-09T19:30:00.609Z,15.27
2018-10-09T19:32:29.428Z,12.00
2018-10-09T19:34:58.160Z,12.10
2018-10-09T19:37:27.039Z,9.57
2018-10-09T19:39:55.751Z,8.43
2018-10-09T19:42:24.630Z,11.23
2018-10-09T19:44:53.577Z,10.90
2018-10-09T19:47:23.737Z,11.57
2018-10-09T19:49:52.726Z,10.37
2018-10-09T19:52:21.458Z,9.63
2018-10-09T19:54:50.203Z,12.10
2018-10-09T19:57:18.911Z,11.30
2018-10-09T19:59:47.554Z,12.07
2018-10-09T20:02:16.352Z,11.27
2018-10-09T20:04:46.037Z,13.00
2018-10-09T20:07:14.988Z,12.67
2018-10-09T20:09:43.841Z,12.50
2018-10-09T20:12:12.647Z,14.53
2018-10-09T20:14:41.365Z,13.67
2018-10-09T20:17:10.033Z,13.00
2018-10-09T20:19:38.793Z,14.23
2018-10-09T20:22:10.205Z,12.77
2018-10-09T20:24:39.097Z,11.97
2018-10-09T20:27:07.933Z,11.77
2018-10-09T20:29:36.589Z,11.47
2018-10-09T20:32:11.783Z,12.53
2018-10-09T20:34:40.929Z,12.03
2018-10-09T20:37:10.897Z,11.87
2018-10-09T20:39:39.645Z,10.07
2018-10-09T20:42:09.065Z,10.53
2018-10-09T20:44:37.759Z,10.60
2018-10-09T20:47:06.716Z,10.63
2018-10-09T20:49:36.376Z,11.30
2018-10-09T20:52:05.194Z,10.17
2018-10-09T20:54:33.893Z,11.07
2018-10-09T20:57:02.641Z,11.60
2018-10-09T20:59:31.366Z,11.87
2018-10-09T21:02:00.047Z,10.90
2018-10-09T21:04:28.800Z,10.70
2018-10-09T21:06:57.494Z,11.77
2018-10-09T21:09:26.183Z,13.83
2018-10-09T21:11:54.924Z,13.83
2018-10-09T21:14:23.621Z,15.23
2018-10-09T21:16:52.417Z,15.10
2018-10-09T21:19:21.118Z,14.03
2018-10-09T21:21:49.789Z,13.07
2018-10-09T21:24:18.465Z,15.17
2018-10-09T21:26:47.511Z,13.17
2018-10-09T21:29:16.224Z,14.60
2018-10-09T21:31:45.493Z,14.13
2018-10-09T21:34:14.241Z,13.70
2018-10-09T21:36:42.998Z,12.77
2018-10-09T21:39:12.492Z,13.67
2018-10-09T21:41:41.375Z,13.37
2018-10-09T21:44:09.998Z,13.97
2018-10-09T21:46:38.773Z,14.50
2018-10-09T21:49:07.596Z,15.70
2018-10-09T21:51:36.296Z,15.30
2018-10-09T21:54:04.987Z,13.87
2018-10-09T21:56:33.680Z,14.27
2018-10-09T21:59:02.413Z,14.87
2018-10-09T22:01:31.076Z,13.57
2018-10-09T22:03:59.754Z,12.70
2018-10-09T22:06:28.479Z,13.80
2018-10-09T22:08:57.148Z,13.37
2018-10-09T22:11:26.096Z,13.10
2018-10-09T22:13:54.723Z,12.80
2018-10-09T22:16:23.376Z,12.90
2018-10-09T22:18:52.015Z,10.70
2018-10-09T22:21:20.664Z,10.97
2018-10-09T22:23:49.405Z,12.13
2018-10-09T22:26:18.149Z,12.43
2018-10-09T22:28:46.821Z,12.40
2018-10-09T22:31:15.496Z,13.23
2018-10-09T22:33:44.183Z,12.67
2018-10-09T22:36:12.833Z,12.50
2018-10-09T22:38:41.512Z,12.33
2018-10-09T22:41:10.203Z,12.40
2018-10-09T22:43:38.877Z,14.17
2018-10-09T22:46:07.592Z,11.87
2018-10-09T22:48:36.258Z,13.23
2018-10-09T22:51:04.880Z,13.47
2018-10-09T22:53:33.681Z,13.07
2018-10-09T22:56:02.600Z,12.70
2018-10-09T22:58:31.233Z,13.47
2018-10-09T23:00:59.881Z,12.83
2018-10-09T23:03:28.612Z,13.13
2018-10-09T23:05:57.265Z,12.17
2018-10-09T23:08:25.923Z,12.33
2018-10-09T23:10:54.611Z,12.47
2018-10-09T23:13:23.297Z,11.73
2018-10-09T23:15:52.022Z,12.40
2018-10-09T23:18:20.693Z,12.40
2018-10-09T23:20:49.395Z,12.77
2018-10-09T23:23:18.076Z,13.00
2018-10-09T23:25:46.794Z,13.60
2018-10-09T23:28:15.477Z,12.97
2018-10-09T23:30:44.241Z,13.23
2018-10-09T23:33:12.990Z,13.23
2018-10-09T23:35:41.745Z,13.53
2018-10-09T23:38:10.479Z,13.10
2018-10-09T23:40:39.200Z,12.53
2018-10-09T23:43:07.938Z,10.33
2018-10-09T23:45:36.652Z,10.43
2018-10-09T23:48:09.114Z,10.47
2018-10-09T23:50:40.830Z,10.20
2018-10-09T23:53:09.614Z,10.13
2018-10-09T23:55:38.484Z,10.90
2018-10-09T23:58:07.622Z,10.80
